sensor_id;sensor_type;location;lat;lon;timestamp;P1;durP1;ratioP1;P2;durP2;ratioP2
58774;SDS011;44545;47.480;19.024;2023-03-01T04:17:58;1.95;;;1.27;;
58774;SDS011;44545;47.480;19.024;2023-03-01T04:21:02;5.37;;;3.12;;
58774;SDS011;44545;47.480;19.024;2023-03-01T04:24:04;3.53;;;2.25;;
58774;SDS011;44545;47.480;19.024;2023-03-01T04:27:06;3.90;;;2.62;;
58774;SDS011;44545;47.480;19.024;2023-03-01T04:30:09;1.95;;;1.83;;
58774;SDS011;44545;47.480;19.024;2023-03-01T04:33:12;3.20;;;2.87;;
58774;SDS011;44545;47.480;19.024;2023-03-01T04:36:15;3.70;;;3.42;;
58774;SDS011;44545;47.480;19.024;2023-03-01T04:39:18;3.58;;;1.75;;
58774;SDS011;44545;47.480;19.024;2023-03-01T04:42:20;3.30;;;1.87;;
58774;SDS011;44545;47.480;19.024;2023-03-01T04:45:23;4.28;;;2.72;;
58774;SDS011;44545;47.480;19.024;2023-03-01T04:48:25;8.02;;;3.33;;
58774;SDS011;44545;47.480;19.024;2023-03-01T04:51:28;7.15;;;2.90;;
58774;SDS011;44545;47.480;19.024;2023-03-01T04:54:31;4.12;;;1.50;;
58774;SDS011;44545;47.480;19.024;2023-03-01T04:57:34;4.22;;;1.62;;
58774;SDS011;44545;47.480;19.024;2023-03-01T05:00:36;2.97;;;2.00;;
58774;SDS011;44545;47.480;19.024;2023-03-01T05:03:39;1.52;;;1.42;;
58774;SDS011;44545;47.480;19.024;2023-03-01T05:06:44;1.42;;;1.33;;
58774;SDS011;44545;47.480;19.024;2023-03-01T05:09:46;2.17;;;1.70;;
58774;SDS011;44545;47.480;19.024;2023-03-01T05:12:48;2.28;;;1.20;;
58774;SDS011;44545;47.480;19.024;2023-03-01T05:15:55;5.30;;;1.77;;
58774;SDS011;44545;47.480;19.024;2023-03-01T05:18:59;3.28;;;2.58;;
58774;SDS011;44545;47.480;19.024;2023-03-01T05:22:01;4.82;;;3.15;;
58774;SDS011;44545;47.480;19.024;2023-03-01T05:25:04;3.60;;;2.92;;
58774;SDS011;44545;47.480;19.024;2023-03-01T05:28:10;2.53;;;2.33;;
58774;SDS011;44545;47.480;19.024;2023-03-01T05:31:13;2.67;;;2.20;;
58774;SDS011;44545;47.480;19.024;2023-03-01T05:34:16;4.10;;;1.83;;
58774;SDS011;44545;47.480;19.024;2023-03-01T05:37:18;2.60;;;1.48;;
58774;SDS011;44545;47.480;19.024;2023-03-01T05:40:22;1.90;;;1.65;;
58774;SDS011;44545;47.480;19.024;2023-03-01T05:43:25;4.78;;;2.22;;
58774;SDS011;44545;47.480;19.024;2023-03-01T05:46:28;3.25;;;2.47;;
58774;SDS011;44545;47.480;19.024;2023-03-01T05:49:31;3.72;;;2.60;;
58774;SDS011;44545;47.480;19.024;2023-03-01T05:52:34;4.95;;;2.90;;
58774;SDS011;44545;47.480;19.024;2023-03-01T05:55:36;6.70;;;3.03;;
58774;SDS011;44545;47.480;19.024;2023-03-01T05:58:39;4.00;;;2.37;;
58774;SDS011;44545;47.480;19.024;2023-03-01T06:01:41;3.78;;;2.22;;
58774;SDS011;44545;47.480;19.024;2023-03-01T06:04:44;4.97;;;1.60;;
58774;SDS011;44545;47.480;19.024;2023-03-01T06:07:46;5.37;;;3.25;;
58774;SDS011;44545;47.480;19.024;2023-03-01T06:10:48;3.45;;;3.15;;
58774;SDS011;44545;47.480;19.024;2023-03-01T06:13:51;4.53;;;2.28;;
58774;SDS011;44545;47.480;19.024;2023-03-01T06:16:53;2.28;;;1.80;;
58774;SDS011;44545;47.480;19.024;2023-03-01T06:19:55;5.87;;;2.30;;
58774;SDS011;44545;47.480;19.024;2023-03-01T06:22:58;3.22;;;2.45;;
58774;SDS011;44545;47.480;19.024;2023-03-01T06:26:05;1.77;;;1.62;;
58774;SDS011;44545;47.480;19.024;2023-03-01T06:29:09;3.55;;;2.28;;
58774;SDS011;44545;47.480;19.024;2023-03-01T06:32:11;6.03;;;3.37;;
58774;SDS011;44545;47.480;19.024;2023-03-01T06:35:14;6.47;;;3.12;;
58774;SDS011;44545;47.480;19.024;2023-03-01T06:38:19;14.13;;;3.60;;
58774;SDS011;44545;47.480;19.024;2023-03-01T06:41:22;2.25;;;2.08;;
58774;SDS011;44545;47.480;19.024;2023-03-01T06:44:24;3.92;;;2.53;;
58774;SDS011;44545;47.480;19.024;2023-03-01T06:47:27;2.33;;;1.65;;
58774;SDS011;44545;47.480;19.024;2023-03-01T06:50:29;4.07;;;2.10;;
58774;SDS011;44545;47.480;19.024;2023-03-01T06:53:32;2.58;;;1.42;;
58774;SDS011;44545;47.480;19.024;2023-03-01T06:56:34;1.83;;;1.60;;
58774;SDS011;44545;47.480;19.024;2023-03-01T06:59:37;5.00;;;2.55;;
58774;SDS011;44545;47.480;19.024;2023-03-01T07:02:40;2.20;;;1.85;;
58774;SDS011;44545;47.480;19.024;2023-03-01T07:05:42;1.70;;;1.52;;
58774;SDS011;44545;47.480;19.024;2023-03-01T07:08:46;2.90;;;1.27;;
58774;SDS011;44545;47.480;19.024;2023-03-01T07:11:52;2.65;;;2.45;;
58774;SDS011;44545;47.480;19.024;2023-03-01T07:14:54;2.67;;;2.17;;
58774;SDS011;44545;47.480;19.024;2023-03-01T07:17:56;6.40;;;2.90;;
58774;SDS011;44545;47.480;19.024;2023-03-01T07:21:03;3.15;;;2.85;;
58774;SDS011;44545;47.480;19.024;2023-03-01T07:24:09;2.33;;;1.52;;
58774;SDS011;44545;47.480;19.024;2023-03-01T07:27:13;5.50;;;2.67;;
58774;SDS011;44545;47.480;19.024;2023-03-01T07:30:15;4.78;;;2.95;;
58774;SDS011;44545;47.480;19.024;2023-03-01T07:33:18;8.98;;;4.32;;
58774;SDS011;44545;47.480;19.024;2023-03-01T07:36:20;2.55;;;2.17;;
58774;SDS011;44545;47.480;19.024;2023-03-01T07:39:23;4.35;;;2.70;;
58774;SDS011;44545;47.480;19.024;2023-03-01T07:42:26;4.35;;;2.72;;
58774;SDS011;44545;47.480;19.024;2023-03-01T07:45:28;4.90;;;2.50;;
58774;SDS011;44545;47.480;19.024;2023-03-01T07:48:31;2.85;;;2.65;;
58774;SDS011;44545;47.480;19.024;2023-03-01T07:51:34;7.57;;;3.97;;
58774;SDS011;44545;47.480;19.024;2023-03-01T07:54:36;2.33;;;2.03;;
58774;SDS011;44545;47.480;19.024;2023-03-01T07:57:38;4.68;;;2.53;;
58774;SDS011;44545;47.480;19.024;2023-03-01T08:00:41;2.67;;;2.17;;
58774;SDS011;44545;47.480;19.024;2023-03-01T08:03:43;14.23;;;2.45;;
58774;SDS011;44545;47.480;19.024;2023-03-01T08:06:45;2.90;;;2.42;;
58774;SDS011;44545;47.480;19.024;2023-03-01T08:09:48;5.68;;;3.97;;
58774;SDS011;44545;47.480;19.024;2023-03-01T08:12:51;3.90;;;2.20;;
58774;SDS011;44545;47.480;19.024;2023-03-01T08:15:59;6.82;;;2.67;;
58774;SDS011;44545;47.480;19.024;2023-03-01T08:19:07;3.95;;;2.15;;
58774;SDS011;44545;47.480;19.024;2023-03-01T08:22:10;3.12;;;1.90;;
58774;SDS011;44545;47.480;19.024;2023-03-01T08:25:13;4.28;;;2.20;;
58774;SDS011;44545;47.480;19.024;2023-03-01T08:28:15;4.12;;;2.33;;
58774;SDS011;44545;47.480;19.024;2023-03-01T08:31:19;5.35;;;2.58;;
58774;SDS011;44545;47.480;19.024;2023-03-01T08:34:23;3.40;;;2.80;;
58774;SDS011;44545;47.480;19.024;2023-03-01T08:37:25;5.12;;;2.25;;
58774;SDS011;44545;47.480;19.024;2023-03-01T08:40:28;7.87;;;4.22;;
58774;SDS011;44545;47.480;19.024;2023-03-01T08:43:30;3.83;;;2.22;;
58774;SDS011;44545;47.480;19.024;2023-03-01T08:46:35;3.20;;;2.90;;
58774;SDS011;44545;47.480;19.024;2023-03-01T08:49:38;4.15;;;3.55;;
58774;SDS011;44545;47.480;19.024;2023-03-01T08:52:41;6.78;;;3.05;;
58774;SDS011;44545;47.480;19.024;2023-03-01T08:55:43;7.72;;;2.95;;
58774;SDS011;44545;47.480;19.024;2023-03-01T08:58:46;2.87;;;2.50;;
58774;SDS011;44545;47.480;19.024;2023-03-01T09:01:49;8.88;;;3.45;;
58774;SDS011;44545;47.480;19.024;2023-03-01T09:04:52;5.37;;;3.58;;
58774;SDS011;44545;47.480;19.024;2023-03-01T09:07:54;3.05;;;2.25;;
58774;SDS011;44545;47.480;19.024;2023-03-01T09:10:56;3.58;;;3.28;;
58774;SDS011;44545;47.480;19.024;2023-03-01T09:13:58;2.90;;;1.50;;
58774;SDS011;44545;47.480;19.024;2023-03-01T09:17:01;5.35;;;2.90;;
58774;SDS011;44545;47.480;19.024;2023-03-01T09:20:05;6.28;;;3.03;;
58774;SDS011;44545;47.480;19.024;2023-03-01T09:23:08;5.82;;;3.22;;
58774;SDS011;44545;47.480;19.024;2023-03-01T09:26:11;5.53;;;3.08;;
58774;SDS011;44545;47.480;19.024;2023-03-01T09:29:19;4.53;;;3.65;;
58774;SDS011;44545;47.480;19.024;2023-03-01T09:32:21;4.75;;;3.90;;
58774;SDS011;44545;47.480;19.024;2023-03-01T09:35:24;6.47;;;3.03;;
58774;SDS011;44545;47.480;19.024;2023-03-01T09:38:26;5.00;;;3.28;;
58774;SDS011;44545;47.480;19.024;2023-03-01T09:41:46;7.20;;;4.22;;
58774;SDS011;44545;47.480;19.024;2023-03-01T09:45:05;7.68;;;4.18;;
58774;SDS011;44545;47.480;19.024;2023-03-01T09:48:16;5.68;;;3.15;;
58774;SDS011;44545;47.480;19.024;2023-03-01T09:51:24;23.00;;;3.40;;
58774;SDS011;44545;47.480;19.024;2023-03-01T09:54:32;14.27;;;5.07;;
58774;SDS011;44545;47.480;19.024;2023-03-01T10:00:50;6.85;;;4.22;;
58774;SDS011;44545;47.480;19.024;2023-03-01T10:10:56;7.87;;;3.20;;
58774;SDS011;44545;47.480;19.024;2023-03-01T10:20:42;8.20;;;4.05;;
58774;SDS011;44545;47.480;19.024;2023-03-01T10:23:52;4.57;;;3.35;;
58774;SDS011;44545;47.480;19.024;2023-03-01T10:26:56;6.35;;;3.85;;
58774;SDS011;44545;47.480;19.024;2023-03-01T10:33:22;5.55;;;3.70;;
58774;SDS011;44545;47.480;19.024;2023-03-01T10:36:28;6.05;;;3.40;;
58774;SDS011;44545;47.480;19.024;2023-03-01T10:39:35;13.73;;;6.00;;
58774;SDS011;44545;47.480;19.024;2023-03-01T10:42:38;7.65;;;4.55;;
58774;SDS011;44545;47.480;19.024;2023-03-01T10:45:48;6.70;;;3.53;;
58774;SDS011;44545;47.480;19.024;2023-03-01T10:52:40;8.25;;;4.28;;
58774;SDS011;44545;47.480;19.024;2023-03-01T10:55:43;6.53;;;4.12;;
58774;SDS011;44545;47.480;19.024;2023-03-01T10:59:05;7.28;;;3.20;;
58774;SDS011;44545;47.480;19.024;2023-03-01T11:02:18;8.40;;;4.37;;
58774;SDS011;44545;47.480;19.024;2023-03-01T11:05:28;5.12;;;3.33;;
58774;SDS011;44545;47.480;19.024;2023-03-01T11:11:44;8.70;;;3.80;;
58774;SDS011;44545;47.480;19.024;2023-03-01T11:14:48;7.78;;;3.60;;
58774;SDS011;44545;47.480;19.024;2023-03-01T11:18:00;11.00;;;4.72;;
58774;SDS011;44545;47.480;19.024;2023-03-01T11:21:15;9.70;;;3.83;;
58774;SDS011;44545;47.480;19.024;2023-03-01T11:24:18;5.68;;;3.70;;
58774;SDS011;44545;47.480;19.024;2023-03-01T11:27:28;7.37;;;3.65;;
58774;SDS011;44545;47.480;19.024;2023-03-01T11:34:20;6.75;;;3.05;;
58774;SDS011;44545;47.480;19.024;2023-03-01T11:40:41;5.55;;;3.58;;
58774;SDS011;44545;47.480;19.024;2023-03-01T11:43:52;11.90;;;3.25;;
58774;SDS011;44545;47.480;19.024;2023-03-01T11:50:30;6.25;;;3.50;;
58774;SDS011;44545;47.480;19.024;2023-03-01T11:53:48;5.82;;;2.90;;
58774;SDS011;44545;47.480;19.024;2023-03-01T11:57:08;4.72;;;3.03;;
58774;SDS011;44545;47.480;19.024;2023-03-01T12:00:58;14.90;;;3.42;;
58774;SDS011;44545;47.480;19.024;2023-03-01T12:03:56;6.70;;;3.40;;
58774;SDS011;44545;47.480;19.024;2023-03-01T12:14:07;6.00;;;3.65;;
58774;SDS011;44545;47.480;19.024;2023-03-01T12:41:56;5.18;;;2.35;;
58774;SDS011;44545;47.480;19.024;2023-03-01T12:52:09;4.65;;;2.72;;
58774;SDS011;44545;47.480;19.024;2023-03-01T12:55:23;5.20;;;2.60;;
58774;SDS011;44545;47.480;19.024;2023-03-01T12:58:29;4.78;;;2.90;;
58774;SDS011;44545;47.480;19.024;2023-03-01T13:08:39;3.62;;;2.67;;
58774;SDS011;44545;47.480;19.024;2023-03-01T13:11:50;2.83;;;2.08;;
58774;SDS011;44545;47.480;19.024;2023-03-01T13:14:53;4.50;;;2.53;;
58774;SDS011;44545;47.480;19.024;2023-03-01T13:18:00;3.40;;;2.33;;
58774;SDS011;44545;47.480;19.024;2023-03-01T13:21:30;5.15;;;2.80;;
58774;SDS011;44545;47.480;19.024;2023-03-01T13:24:35;6.60;;;2.55;;
58774;SDS011;44545;47.480;19.024;2023-03-01T13:27:41;5.03;;;2.87;;
58774;SDS011;44545;47.480;19.024;2023-03-01T13:30:47;13.38;;;2.78;;
58774;SDS011;44545;47.480;19.024;2023-03-01T13:33:50;5.20;;;1.70;;
58774;SDS011;44545;47.480;19.024;2023-03-01T13:37:08;6.03;;;2.45;;
58774;SDS011;44545;47.480;19.024;2023-03-01T13:46:36;2.35;;;2.15;;
58774;SDS011;44545;47.480;19.024;2023-03-01T13:49:45;3.53;;;2.33;;
58774;SDS011;44545;47.480;19.024;2023-03-01T13:52:53;3.22;;;2.30;;
58774;SDS011;44545;47.480;19.024;2023-03-01T13:56:08;6.47;;;2.30;;
58774;SDS011;44545;47.480;19.024;2023-03-01T13:59:20;9.90;;;1.73;;
58774;SDS011;44545;47.480;19.024;2023-03-01T14:02:24;1.98;;;1.52;;
58774;SDS011;44545;47.480;19.024;2023-03-01T14:05:26;1.95;;;1.62;;
58774;SDS011;44545;47.480;19.024;2023-03-01T14:08:30;5.72;;;2.37;;
58774;SDS011;44545;47.480;19.024;2023-03-01T14:15:01;2.95;;;2.20;;
58774;SDS011;44545;47.480;19.024;2023-03-01T14:18:10;3.72;;;2.55;;
58774;SDS011;44545;47.480;19.024;2023-03-01T14:21:19;4.90;;;2.35;;
58774;SDS011;44545;47.480;19.024;2023-03-01T14:24:22;2.87;;;1.98;;
58774;SDS011;44545;47.480;19.024;2023-03-01T14:27:26;9.93;;;1.98;;
58774;SDS011;44545;47.480;19.024;2023-03-01T14:33:43;2.65;;;1.55;;
58774;SDS011;44545;47.480;19.024;2023-03-01T14:37:09;2.55;;;1.73;;
58774;SDS011;44545;47.480;19.024;2023-03-01T14:40:20;3.22;;;1.45;;
58774;SDS011;44545;47.480;19.024;2023-03-01T14:43:33;3.65;;;1.80;;
58774;SDS011;44545;47.480;19.024;2023-03-01T14:46:39;6.12;;;1.33;;
58774;SDS011;44545;47.480;19.024;2023-03-01T14:49:43;8.15;;;1.42;;
58774;SDS011;44545;47.480;19.024;2023-03-01T14:52:46;4.93;;;1.35;;
58774;SDS011;44545;47.480;19.024;2023-03-01T14:55:52;84.47;;;80.00;;
58774;SDS011;44545;47.480;19.024;2023-03-01T14:59:07;536.72;;;507.73;;
58774;SDS011;44545;47.480;19.024;2023-03-01T15:02:13;580.83;;;550.20;;
58774;SDS011;44545;47.480;19.024;2023-03-01T15:05:25;603.08;;;572.08;;
58774;SDS011;44545;47.480;19.024;2023-03-01T15:08:31;631.90;;;599.95;;
58774;SDS011;44545;47.480;19.024;2023-03-01T15:11:37;635.72;;;603.70;;
58774;SDS011;44545;47.480;19.024;2023-03-01T15:14:43;640.60;;;608.62;;
58774;SDS011;44545;47.480;19.024;2023-03-01T15:17:59;651.90;;;618.97;;
58774;SDS011;44545;47.480;19.024;2023-03-01T15:21:08;648.20;;;615.20;;
58774;SDS011;44545;47.480;19.024;2023-03-01T15:24:17;655.30;;;621.92;;
58774;SDS011;44545;47.480;19.024;2023-03-01T15:27:25;650.22;;;617.40;;
58774;SDS011;44545;47.480;19.024;2023-03-01T15:30:33;647.10;;;614.33;;
58774;SDS011;44545;47.480;19.024;2023-03-01T15:33:40;637.50;;;605.65;;
58774;SDS011;44545;47.480;19.024;2023-03-01T15:36:49;646.25;;;614.03;;
58774;SDS011;44545;47.480;19.024;2023-03-01T15:39:53;650.55;;;617.65;;
58774;SDS011;44545;47.480;19.024;2023-03-01T15:42:57;652.80;;;619.40;;
58774;SDS011;44545;47.480;19.024;2023-03-01T15:46:21;656.47;;;623.05;;
58774;SDS011;44545;47.480;19.024;2023-03-01T15:49:39;652.20;;;619.08;;
58774;SDS011;44545;47.480;19.024;2023-03-01T15:52:56;653.75;;;620.22;;
58774;SDS011;44545;47.480;19.024;2023-03-01T15:56:00;654.67;;;621.37;;
58774;SDS011;44545;47.480;19.024;2023-03-01T15:59:03;650.22;;;617.60;;
58774;SDS011;44545;47.480;19.024;2023-03-01T16:02:09;640.38;;;608.92;;
58774;SDS011;44545;47.480;19.024;2023-03-01T16:08:27;646.85;;;614.60;;
58774;SDS011;44545;47.480;19.024;2023-03-01T16:11:29;642.42;;;610.58;;
58774;SDS011;44545;47.480;19.024;2023-03-01T16:14:33;645.00;;;613.33;;
58774;SDS011;44545;47.480;19.024;2023-03-01T16:17:35;639.40;;;607.40;;
58774;SDS011;44545;47.480;19.024;2023-03-01T16:20:37;629.97;;;598.95;;
58774;SDS011;44545;47.480;19.024;2023-03-01T16:23:40;625.38;;;594.60;;
58774;SDS011;44545;47.480;19.024;2023-03-01T16:26:43;638.47;;;606.95;;
58774;SDS011;44545;47.480;19.024;2023-03-01T16:29:47;642.10;;;610.65;;
58774;SDS011;44545;47.480;19.024;2023-03-01T16:32:49;636.38;;;605.00;;
58774;SDS011;44545;47.480;19.024;2023-03-01T16:35:52;637.10;;;604.70;;
58774;SDS011;44545;47.480;19.024;2023-03-01T16:38:55;638.20;;;606.75;;
